Leones, Argentina
Current Conditions -  °F | °C
As of 7:00 PM on Monday 26 Jan 2015 (Local Time) from SAAR Reporting Station
Broken Clouds Broken Clouds  
Wind Chill: 90°   Ceiling: 20000
Heat Index: 96°   Visibility: 6mi
Dew Point: 72°   Wind: 14mph
Humidity: 55%   Direction: 70°ENE
Pressure: 29.62"   Gusts: NA
Location:  32.65°S, 62.3°W
Report Text: SAAR 262200Z 07012KT 9999 FEW032 SCT100BKN200 32/22 Q1003
Loading
Personal Weather Stations






























Interactive Weather Map New forecast layout! Learn more

10-Day Weather Forecast

Advertisements
Track Severe Weather on mobile